Time;durP1;ratioP1;P1;durP2;ratioP2;P2;SDS_P1;SDS_P2;PMS_P1;PMS_P2;Temp;Humidity;BMP_temperature;BMP_pressure;BME280_temperature;BME280_humidity;BME280_pressure;Samples;Min_cycle;Max_cycle;Signal;HPM_P1;HPM_P2
2022/08/21 00:00:57;;;;;;;;;;;;;;;21.35;60.33;99117.06;4441605;32;30586;-92
2022/08/21 00:03:23;;;;;;;;;;;;;;;21.38;60.33;99107.06;4442270;32;19985;-92
2022/08/21 00:05:49;;;;;;;;;;;;;;;21.37;60.33;99117.78;4442006;32;20022;-92
2022/08/21 00:08:15;;;;;;;;;;;;;;;21.33;60.34;99111.91;4442634;32;20049;-93
2022/08/21 00:10:40;;;;;;;;;;;;;;;21.41;60.32;99119.19;4442287;32;19969;-91
2022/08/21 00:13:06;;;;;;;;;;;;;;;21.46;60.34;99106.38;4442276;32;19989;-92
2022/08/21 00:15:31;;;;;;;;;;;;;;;21.40;60.33;99110.41;4442195;32;19985;-91
2022/08/21 00:17:56;;;;;;;;;;;;;;;21.30;60.33;99108.69;4442200;32;20012;-91
2022/08/21 00:20:22;;;;;;;;;;;;;;;21.31;60.33;99097.12;4429192;32;19977;-92
2022/08/21 00:22:47;;;;;;;;;;;;;;;21.33;60.34;99103.97;4442517;32;20027;-91
2022/08/21 00:25:13;;;;;;;;;;;;;;;21.25;60.33;99095.84;4442126;32;20366;-92
2022/08/21 00:27:39;;;;;;;;;;;;;;;21.35;60.33;99096.72;4442266;32;20486;-92
2022/08/21 00:30:05;;;;;;;;;;;;;;;21.37;60.33;99094.78;4442165;32;19989;-92
2022/08/21 00:32:30;;;;;;;;;;;;;;;21.25;60.33;99090.53;4441933;32;20385;-91
2022/08/21 00:34:55;;;;;;;;;;;;;;;21.19;60.33;99098.16;4441611;32;28459;-92
2022/08/21 00:37:20;;;;;;;;;;;;;;;21.26;60.31;99101.97;4429557;32;19989;-92
2022/08/21 00:39:47;;;;;;;;;;;;;;;21.27;60.33;99101.00;4428157;32;23100;-92
2022/08/21 00:42:15;;;;;;;;;;;;;;;21.05;60.32;99099.31;4442168;32;19985;-92
2022/08/21 00:44:41;;;;;;;;;;;;;;;21.05;60.32;99101.97;4442207;32;19992;-93
2022/08/21 00:47:08;;;;;;;;;;;;;;;21.11;60.32;99107.59;4428906;32;20010;-91
2022/08/21 00:49:33;;;;;;;;;;;;;;;21.03;60.31;99110.03;4441860;32;20025;-92
2022/08/21 00:51:59;;;;;;;;;;;;;;;20.96;60.31;99106.25;4441607;32;20017;-92
2022/08/21 00:54:24;;;;;;;;;;;;;;;21.04;60.32;99097.66;4441941;32;20374;-92
2022/08/21 00:56:52;;;;;;;;;;;;;;;21.03;60.31;99095.97;4428837;32;20012;-92
2022/08/21 00:59:17;;;;;;;;;;;;;;;21.02;60.32;99092.50;4441841;32;19965;-92
2022/08/21 01:01:43;;;;;;;;;;;;;;;21.03;60.31;99104.75;4441908;32;19988;-93
2022/08/21 01:04:08;;;;;;;;;;;;;;;21.01;60.31;99092.63;4428367;32;25357;-92
2022/08/21 01:06:33;;;;;;;;;;;;;;;21.18;60.33;99086.72;4441307;32;27697;-92
2022/08/21 01:08:58;;;;;;;;;;;;;;;21.03;60.32;99093.31;4441714;32;20016;-90
2022/08/21 01:11:25;;;;;;;;;;;;;;;21.06;60.32;99088.63;4441248;32;20302;-92
2022/08/21 01:13:51;;;;;;;;;;;;;;;21.02;60.32;99100.44;4441728;32;19991;-90
2022/08/21 01:16:17;;;;;;;;;;;;;;;20.90;60.30;99090.06;4441700;32;20000;-91
2022/08/21 01:18:43;;;;;;;;;;;;;;;20.81;60.31;99089.84;4441495;32;20017;-91
2022/08/21 01:21:09;;;;;;;;;;;;;;;20.96;60.31;99085.09;4441778;32;19977;-91
2022/08/21 01:23:35;;;;;;;;;;;;;;;20.81;60.31;99081.09;4441863;32;20052;-91
2022/08/21 01:26:01;;;;;;;;;;;;;;;20.84;60.30;99084.34;4429257;32;20048;-91
2022/08/21 01:28:26;;;;;;;;;;;;;;;20.91;60.31;99075.88;4441741;32;19984;-91
2022/08/21 01:30:51;;;;;;;;;;;;;;;20.88;60.31;99079.63;4446655;32;20289;-90
2022/08/21 01:33:20;;;;;;;;;;;;;;;20.88;60.31;99076.13;4452658;32;19981;-91
2022/08/21 01:35:45;;;;;;;;;;;;;;;20.98;60.31;99072.56;4446329;32;19997;-91
2022/08/21 01:38:10;;;;;;;;;;;;;;;20.90;60.31;99064.44;4442963;32;29546;-90
2022/08/21 01:40:36;;;;;;;;;;;;;;;20.94;60.32;99071.16;4441733;32;20022;-91
2022/08/21 01:43:02;;;;;;;;;;;;;;;20.93;60.30;99064.19;4455649;32;20020;-92
2022/08/21 01:45:27;;;;;;;;;;;;;;;20.84;60.30;99052.59;4455700;32;19985;-91
2022/08/21 01:47:52;;;;;;;;;;;;;;;20.84;60.30;99070.28;4428786;32;20328;-92
2022/08/21 01:50:18;;;;;;;;;;;;;;;20.83;60.30;99063.31;4455087;32;20000;-93
2022/08/21 01:52:43;;;;;;;;;;;;;;;20.81;60.30;99067.84;4441587;32;20004;-92
2022/08/21 01:55:08;;;;;;;;;;;;;;;20.84;60.31;99068.47;4440936;32;29966;-92
2022/08/21 01:57:34;;;;;;;;;;;;;;;20.80;60.31;99071.47;4441535;32;19997;-91
2022/08/21 01:59:59;;;;;;;;;;;;;;;20.81;60.30;99078.44;4445995;32;20019;-92
2022/08/21 02:02:24;;;;;;;;;;;;;;;20.71;60.30;99074.91;4441206;32;22536;-91
2022/08/21 02:04:49;;;;;;;;;;;;;;;20.68;60.30;99067.22;4441494;32;20025;-92
2022/08/21 02:07:15;;;;;;;;;;;;;;;20.68;60.30;99065.44;4440867;32;27317;-92
2022/08/21 02:09:42;;;;;;;;;;;;;;;20.69;60.29;99061.81;4441098;32;20019;-92
2022/08/21 02:12:07;;;;;;;;;;;;;;;20.79;60.30;99065.34;4441782;32;20038;-92
2022/08/21 02:14:32;;;;;;;;;;;;;;;20.72;60.30;99056.25;4441508;32;19989;-92
2022/08/21 02:16:58;;;;;;;;;;;;;;;20.82;60.30;99058.97;4441380;32;19969;-92
2022/08/21 02:19:23;;;;;;;;;;;;;;;20.87;60.30;99058.59;4440835;32;25113;-92
2022/08/21 02:21:48;;;;;;;;;;;;;;;20.81;60.31;99063.41;4441367;32;20377;-92
2022/08/21 02:24:13;;;;;;;;;;;;;;;20.70;60.29;99052.06;4440775;32;24499;-93
2022/08/21 02:26:39;;;;;;;;;;;;;;;20.75;60.30;99055.16;4427729;32;24667;-93
2022/08/21 02:29:04;;;;;;;;;;;;;;;20.76;60.30;99056.84;4441093;32;19981;-92
2022/08/21 02:31:30;;;;;;;;;;;;;;;20.78;60.30;99062.84;4455268;32;20076;-92
2022/08/21 02:33:56;;;;;;;;;;;;;;;20.74;60.30;99069.34;4441343;32;20418;-92
2022/08/21 02:36:21;;;;;;;;;;;;;;;20.75;60.30;99069.22;4440318;32;29148;-91
2022/08/21 02:38:46;;;;;;;;;;;;;;;20.74;60.30;99070.19;4440447;32;27980;-92
2022/08/21 02:41:15;;;;;;;;;;;;;;;20.70;60.29;99065.31;4427317;32;36010;-92
2022/08/21 02:43:41;;;;;;;;;;;;;;;20.76;60.30;99059.47;4441091;32;20000;-92
2022/08/21 02:46:06;;;;;;;;;;;;;;;20.86;60.30;99051.62;4440352;32;32284;-91
2022/08/21 02:48:31;;;;;;;;;;;;;;;20.63;60.29;99048.28;4438073;32;20345;-92
2022/08/21 02:50:58;;;;;;;;;;;;;;;20.68;60.29;99044.28;4425379;32;20001;-92
2022/08/21 02:53:23;;;;;;;;;;;;;;;20.75;60.30;99049.88;4425601;32;20654;-92
2022/08/21 02:55:49;;;;;;;;;;;;;;;20.67;60.29;99050.53;4425629;32;20041;-92
2022/08/21 02:58:15;;;;;;;;;;;;;;;20.53;60.28;99056.97;4425225;32;19977;-91
2022/08/21 03:00:40;;;;;;;;;;;;;;;20.70;60.29;99050.25;4425508;32;19985;-92
2022/08/21 03:03:05;;;;;;;;;;;;;;;20.71;60.30;99054.59;4414394;32;20266;-92
2022/08/21 03:05:31;;;;;;;;;;;;;;;20.69;60.30;99048.59;4419020;32;19973;-92
2022/08/21 03:07:57;;;;;;;;;;;;;;;20.78;60.29;99050.44;4442895;32;19953;-92
2022/08/21 03:10:22;;;;;;;;;;;;;;;20.79;60.29;99053.94;4443051;32;19965;-91
2022/08/21 03:12:47;;;;;;;;;;;;;;;20.73;60.30;99046.53;4435297;32;20334;-90
2022/08/21 03:15:13;;;;;;;;;;;;;;;20.68;60.30;99049.56;4428520;32;20009;-92
2022/08/21 03:17:38;;;;;;;;;;;;;;;20.64;60.29;99055.25;4427957;32;19974;-91
2022/08/21 03:20:04;;;;;;;;;;;;;;;20.53;60.28;99046.41;4426466;32;39524;-90
2022/08/21 03:22:29;;;;;;;;;;;;;;;20.47;60.29;99054.84;4415150;32;20085;-91
2022/08/21 03:24:54;;;;;;;;;;;;;;;20.47;60.29;99054.84;4428302;32;23108;-90
2022/08/21 03:27:19;;;;;;;;;;;;;;;20.53;60.28;99054.31;4442295;32;29405;-91
2022/08/21 03:29:45;;;;;;;;;;;;;;;20.46;60.28;99058.47;4419061;32;27159;-92
2022/08/21 03:32:10;;;;;;;;;;;;;;;20.48;60.29;99051.25;4428770;32;28223;-92
2022/08/21 03:34:38;;;;;;;;;;;;;;;20.56;60.29;99058.50;4427672;32;20027;-91
2022/08/21 03:37:04;;;;;;;;;;;;;;;20.45;60.28;99045.38;4427415;32;20057;-91
2022/08/21 03:39:29;;;;;;;;;;;;;;;20.42;60.28;99064.13;4427092;32;20579;-92
2022/08/21 03:41:54;;;;;;;;;;;;;;;20.49;60.29;99063.50;4426581;32;25303;-92
2022/08/21 03:44:19;;;;;;;;;;;;;;;20.47;60.29;99062.78;4426964;32;19974;-92
2022/08/21 03:46:45;;;;;;;;;;;;;;;20.61;60.29;99066.09;4429507;32;19985;-92
2022/08/21 03:49:10;;;;;;;;;;;;;;;20.57;60.29;99069.94;4456027;32;19973;-91
2022/08/21 03:51:35;;;;;;;;;;;;;;;20.43;60.28;99060.53;4455797;32;27888;-91
2022/08/21 03:54:00;;;;;;;;;;;;;;;20.50;60.29;99072.25;4442099;32;19977;-91
2022/08/21 03:56:26;;;;;;;;;;;;;;;20.67;60.29;99073.50;4429423;32;20109;-91
2022/08/21 03:58:51;;;;;;;;;;;;;;;20.69;60.30;99080.34;4441491;32;30959;-90
2022/08/21 04:01:16;;;;;;;;;;;;;;;20.79;60.29;99083.03;4442170;32;20302;-91
2022/08/21 04:03:41;;;;;;;;;;;;;;;20.84;60.30;99071.09;4441846;32;29557;-91
2022/08/21 04:06:07;;;;;;;;;;;;;;;20.87;60.31;99080.59;4456730;32;19973;-91
2022/08/21 04:08:32;;;;;;;;;;;;;;;20.76;60.30;99075.34;4442013;32;20031;-90
2022/08/21 04:10:58;;;;;;;;;;;;;;;20.60;60.29;99082.91;4442421;32;20319;-92
2022/08/21 04:13:23;;;;;;;;;;;;;;;20.52;60.28;99088.81;4442699;32;20007;-91
2022/08/21 04:15:48;;;;;;;;;;;;;;;20.56;60.29;99081.47;4441547;32;26285;-91
2022/08/21 04:18:13;;;;;;;;;;;;;;;20.66;60.30;99083.25;4441974;32;19988;-92
2022/08/21 04:20:39;;;;;;;;;;;;;;;20.73;60.30;99078.25;4441625;32;32686;-93
2022/08/21 04:23:04;;;;;;;;;;;;;;;20.63;60.29;99078.22;4441953;32;19997;-92
2022/08/21 04:25:29;;;;;;;;;;;;;;;20.65;60.29;99083.38;4456044;32;20033;-92
2022/08/21 04:27:55;;;;;;;;;;;;;;;20.86;60.30;99081.56;4441926;32;19997;-92
2022/08/21 04:30:20;;;;;;;;;;;;;;;20.97;60.31;99085.91;4441925;32;20003;-91
2022/08/21 04:32:46;;;;;;;;;;;;;;;20.91;60.31;99087.28;4442088;32;19995;-92
2022/08/21 04:35:11;;;;;;;;;;;;;;;20.81;60.30;99095.16;4442006;32;20284;-92
2022/08/21 04:37:36;;;;;;;;;;;;;;;20.61;60.28;99095.19;4442624;32;19988;-93
2022/08/21 04:40:02;;;;;;;;;;;;;;;20.87;60.31;99096.47;4441625;32;31952;-92
2022/08/21 04:42:27;;;;;;;;;;;;;;;20.87;60.31;99096.47;4442069;32;20017;-92
2022/08/21 04:44:53;;;;;;;;;;;;;;;20.89;60.30;99091.88;4441930;32;20030;-91
2022/08/21 04:47:18;;;;;;;;;;;;;;;20.71;60.30;99096.06;4440846;32;19995;-91
2022/08/21 04:49:43;;;;;;;;;;;;;;;20.86;60.30;99101.87;4428777;32;23383;-91
2022/08/21 04:52:09;;;;;;;;;;;;;;;20.88;60.31;99100.78;4427120;32;20137;-92
2022/08/21 04:54:34;;;;;;;;;;;;;;;20.72;60.30;99103.88;4426609;32;20014;-91
2022/08/21 04:57:00;;;;;;;;;;;;;;;20.72;60.30;99103.88;4426149;32;24588;-92
2022/08/21 04:59:30;;;;;;;;;;;;;;;20.85;60.30;99108.97;4426601;32;20267;-92
2022/08/21 05:01:56;;;;;;;;;;;;;;;20.86;60.30;99105.38;4426586;32;19992;-92
2022/08/21 05:04:23;;;;;;;;;;;;;;;20.96;60.31;99108.06;4426548;32;19981;-93
2022/08/21 05:06:49;;;;;;;;;;;;;;;20.94;60.31;99100.25;4426721;32;20349;-93
2022/08/21 05:09:15;;;;;;;;;;;;;;;21.07;60.31;99103.53;4412967;32;33904;-91
2022/08/21 05:11:41;;;;;;;;;;;;;;;21.08;60.31;99094.63;4427567;32;19981;-92
2022/08/21 05:14:06;;;;;;;;;;;;;;;21.08;60.31;99109.66;4427410;32;19974;-92
2022/08/21 05:16:32;;;;;;;;;;;;;;;21.13;60.32;99103.00;4426578;32;19997;-92
2022/08/21 05:18:58;;;;;;;;;;;;;;;21.11;60.32;99120.84;4425973;32;25348;-92
2022/08/21 05:21:23;;;;;;;;;;;;;;;21.02;60.32;99116.31;4426611;32;20329;-92
2022/08/21 05:23:48;;;;;;;;;;;;;;;21.02;60.30;99108.38;4431781;32;31512;-93
2022/08/21 05:26:14;;;;;;;;;;;;;;;21.07;60.31;99114.12;4427269;32;30347;-92
2022/08/21 05:28:39;;;;;;;;;;;;;;;21.09;60.31;99124.59;4430432;32;26418;-91
2022/08/21 05:31:04;;;;;;;;;;;;;;;21.00;60.31;99120.06;4425979;32;27790;-91
2022/08/21 05:33:29;;;;;;;;;;;;;;;20.92;60.30;99123.34;4425723;32;28196;-92
2022/08/21 05:35:55;;;;;;;;;;;;;;;20.95;60.31;99123.09;4426205;32;19986;-92
2022/08/21 05:38:22;;;;;;;;;;;;;;;21.02;60.30;99124.25;4426427;32;19989;-90
2022/08/21 05:40:47;;;;;;;;;;;;;;;21.07;60.31;99124.72;4426252;32;19985;-92
2022/08/21 05:43:14;;;;;;;;;;;;;;;21.11;60.32;99125.28;4425369;32;33837;-92
2022/08/21 05:45:39;;;;;;;;;;;;;;;21.06;60.31;99120.38;4425927;32;19961;-92
2022/08/21 05:48:08;;;;;;;;;;;;;;;21.09;60.31;99121.94;4437177;32;19996;-93
2022/08/21 05:50:34;;;;;;;;;;;;;;;21.14;60.31;99115.28;4442096;32;19983;-92
2022/08/21 05:52:59;;;;;;;;;;;;;;;21.19;60.32;99114.03;4441646;32;20042;-92
2022/08/21 05:55:25;;;;;;;;;;;;;;;21.18;60.31;99112.34;4441369;32;19989;-92
2022/08/21 05:57:50;;;;;;;;;;;;;;;21.15;60.32;99105.53;4440969;32;25299;-92
2022/08/21 06:00:16;;;;;;;;;;;;;;;21.20;60.32;99107.78;4428713;32;20056;-91
2022/08/21 06:02:41;;;;;;;;;;;;;;;21.26;60.31;99117.84;4428520;32;19981;-93
2022/08/21 06:05:07;;;;;;;;;;;;;;;21.24;60.32;99109.22;4441798;32;19988;-92
2022/08/21 06:07:32;;;;;;;;;;;;;;;21.38;60.33;99104.41;4441813;32;20004;-93
2022/08/21 06:09:57;;;;;;;;;;;;;;;21.36;60.33;99119.59;4441009;32;23645;-91
2022/08/21 06:12:22;;;;;;;;;;;;;;;21.32;60.32;99118.19;4429245;32;36136;-91
2022/08/21 06:14:48;;;;;;;;;;;;;;;21.51;60.34;99109.47;4442291;32;20392;-92
2022/08/21 06:17:14;;;;;;;;;;;;;;;21.38;60.33;99117.66;4455607;32;19985;-92
2022/08/21 06:19:39;;;;;;;;;;;;;;;21.32;60.32;99114.69;4441579;32;19992;-91
2022/08/21 06:22:05;;;;;;;;;;;;;;;21.43;60.34;99120.72;4441325;32;19973;-91
2022/08/21 06:24:30;;;;;;;;;;;;;;;21.40;60.32;99118.34;4454572;32;27116;-91
2022/08/21 06:26:56;;;;;;;;;;;;;;;21.32;60.32;99117.34;4441209;32;20012;-90
2022/08/21 06:29:21;;;;;;;;;;;;;;;21.36;60.33;99121.41;4441218;32;19990;-91
2022/08/21 06:31:47;;;;;;;;;;;;;;;21.28;60.33;99122.03;4441370;32;20000;-91
2022/08/21 06:34:12;;;;;;;;;;;;;;;21.16;60.31;99123.06;4441332;32;20037;-92
2022/08/21 06:36:38;;;;;;;;;;;;;;;21.21;60.32;99120.88;4441159;32;20348;-91
2022/08/21 06:39:03;;;;;;;;;;;;;;;21.26;60.33;99112.56;4440497;32;24405;-90
2022/08/21 06:41:28;;;;;;;;;;;;;;;21.40;60.33;99114.88;4441466;32;19995;-91
2022/08/21 06:43:54;;;;;;;;;;;;;;;21.52;60.34;99126.19;4441207;32;20029;-91
2022/08/21 06:46:19;;;;;;;;;;;;;;;21.60;60.34;99119.25;4428441;32;20024;-90
2022/08/21 06:48:44;;;;;;;;;;;;;;;21.69;60.34;99121.09;4441302;32;19991;-90
2022/08/21 06:51:10;;;;;;;;;;;;;;;21.50;60.34;99125.47;4441609;32;20023;-92
2022/08/21 06:53:35;;;;;;;;;;;;;;;21.55;60.33;99121.47;4443151;32;19997;-91
2022/08/21 06:56:01;;;;;;;;;;;;;;;21.64;60.34;99122.47;4453955;32;19962;-92
2022/08/21 06:58:26;;;;;;;;;;;;;;;21.69;60.35;99120.25;4456363;32;20009;-92
2022/08/21 07:00:51;;;;;;;;;;;;;;;21.66;60.35;99115.22;4442958;32;19958;-91
2022/08/21 07:03:27;;;;;;;;;;;;;;;21.89;60.36;99122.00;4442880;32;19977;-91
2022/08/21 07:05:52;;;;;;;;;;;;;;;21.97;60.37;99114.19;4441795;32;20001;-91
2022/08/21 07:08:17;;;;;;;;;;;;;;;21.90;60.36;99117.53;4454990;32;20038;-91
2022/08/21 07:10:43;;;;;;;;;;;;;;;21.90;60.36;99110.41;4440594;32;20015;-89
2022/08/21 07:13:08;;;;;;;;;;;;;;;21.94;60.35;99118.94;4440603;32;20262;-92
2022/08/21 07:15:33;;;;;;;;;;;;;;;21.98;60.36;99121.16;4441057;32;20020;-92
2022/08/21 07:17:58;;;;;;;;;;;;;;;22.24;60.37;99120.66;4444781;32;19997;-92
2022/08/21 07:20:24;;;;;;;;;;;;;;;22.14;60.37;99117.19;4440871;32;35572;-91
2022/08/21 07:22:49;;;;;;;;;;;;;;;21.96;60.36;99122.28;4450128;32;32252;-92
2022/08/21 07:25:14;;;;;;;;;;;;;;;22.10;60.36;99127.22;4445605;32;26019;-91
2022/08/21 07:27:39;;;;;;;;;;;;;;;22.24;60.37;99116.25;4459674;32;19989;-91
2022/08/21 07:30:05;;;;;;;;;;;;;;;22.29;60.38;99113.16;4457098;32;19970;-91
2022/08/21 07:32:30;;;;;;;;;;;;;;;22.22;60.38;99118.16;4440403;32;19985;-92
2022/08/21 07:34:55;;;;;;;;;;;;;;;22.36;60.38;99112.47;4454114;32;28279;-92
2022/08/21 07:37:20;;;;;;;;;;;;;;;22.49;60.40;99119.31;4453762;32;26201;-91
2022/08/21 07:39:48;;;;;;;;;;;;;;;22.53;60.39;99110.94;4439964;32;22934;-92
2022/08/21 07:42:14;;;;;;;;;;;;;;;22.66;60.40;99103.50;4440263;32;20041;-91
2022/08/21 07:44:39;;;;;;;;;;;;;;;22.57;60.38;99111.47;4440214;32;20016;-91
2022/08/21 07:47:05;;;;;;;;;;;;;;;22.80;60.40;99104.91;4426535;32;33264;-92
2022/08/21 07:49:30;;;;;;;;;;;;;;;22.81;60.41;99106.59;4441567;32;28321;-91
2022/08/21 07:51:56;;;;;;;;;;;;;;;23.00;60.41;99103.06;4441626;32;28908;-91
2022/08/21 07:54:21;;;;;;;;;;;;;;;23.27;60.42;99089.00;4442098;32;20370;-91
2022/08/21 07:56:46;;;;;;;;;;;;;;;23.30;60.43;99091.38;4442300;32;20017;-91
2022/08/21 07:59:12;;;;;;;;;;;;;;;23.27;60.42;99095.16;4442009;32;19977;-91
2022/08/21 08:01:37;;;;;;;;;;;;;;;23.33;60.43;99085.75;4442298;32;20003;-92
2022/08/21 08:04:03;;;;;;;;;;;;;;;23.54;60.44;99090.84;4442012;32;20007;-91
2022/08/21 08:06:28;;;;;;;;;;;;;;;23.78;60.45;99088.50;4456230;32;20220;-91
2022/08/21 08:08:53;;;;;;;;;;;;;;;23.78;60.45;99091.16;4456257;32;20015;-91
2022/08/21 08:11:18;;;;;;;;;;;;;;;23.88;60.46;99089.28;4456194;32;20021;-91
2022/08/21 08:13:45;;;;;;;;;;;;;;;24.01;60.47;99080.94;4441606;32;29041;-91
2022/08/21 08:16:10;;;;;;;;;;;;;;;24.04;60.46;99087.78;4442178;32;19974;-90
2022/08/21 08:18:35;;;;;;;;;;;;;;;24.05;60.46;99090.28;4441483;32;26099;-91
2022/08/21 08:21:01;;;;;;;;;;;;;;;24.19;60.47;99086.28;4442013;32;20311;-91
2022/08/21 08:23:27;;;;;;;;;;;;;;;24.14;60.48;99084.09;4455704;32;22261;-91
2022/08/21 08:25:52;;;;;;;;;;;;;;;23.91;60.46;99071.37;4429088;32;20293;-91
2022/08/21 08:28:18;;;;;;;;;;;;;;;23.74;60.45;99086.31;4441920;32;19981;-92
2022/08/21 08:30:46;;;;;;;;;;;;;;;23.57;60.44;99085.28;4441744;32;19999;-90
2022/08/21 08:33:11;;;;;;;;;;;;;;;23.49;60.44;99083.31;4429128;32;19997;-90
2022/08/21 08:35:37;;;;;;;;;;;;;;;23.53;60.44;99079.37;4441979;32;19969;-91
2022/08/21 08:38:02;;;;;;;;;;;;;;;23.53;60.44;99079.37;4441080;32;30640;-91
2022/08/21 08:40:33;;;;;;;;;;;;;;;23.89;60.46;99069.69;4441704;32;19980;-91
2022/08/21 08:42:58;;;;;;;;;;;;;;;23.82;60.47;99078.41;4441857;32;20362;-91
2022/08/21 08:45:25;;;;;;;;;;;;;;;24.00;60.47;99079.28;4428709;32;20023;-90
2022/08/21 08:47:57;;;;;;;;;;;;;;;24.12;60.47;99074.56;4441934;32;19969;-89
2022/08/21 08:50:42;;;;;;;;;;;;;;;24.35;60.48;99072.31;4442478;32;20016;-91
2022/08/21 08:53:26;;;;;;;;;;;;;;;24.63;60.50;99079.22;4441695;32;20020;-91
2022/08/21 08:55:51;;;;;;;;;;;;;;;24.79;60.50;99081.97;4441697;32;19991;-90
2022/08/21 08:58:37;;;;;;;;;;;;;;;24.62;60.50;99085.53;4455795;32;19974;-89
2022/08/21 09:01:02;;;;;;;;;;;;;;;24.22;60.47;99085.13;4441732;32;19993;-91
2022/08/21 09:03:27;;;;;;;;;;;;;;;24.57;60.49;99074.50;4441732;32;19985;-90
2022/08/21 09:05:59;;;;;;;;;;;;;;;25.07;60.52;99071.19;4441675;32;19981;-90
2022/08/21 09:08:49;;;;;;;;;;;;;;;25.16;60.53;99075.59;4441709;32;19981;-90
2022/08/21 09:11:28;;;;;;;;;;;;;;;25.04;60.52;99083.00;4442182;32;20382;-88
2022/08/21 09:14:26;;;;;;;;;;;;;;;25.19;60.53;99082.44;4429089;32;20019;-90
2022/08/21 09:16:51;;;;;;;;;;;;;;;25.30;60.53;99072.31;4418902;32;19950;-90
2022/08/21 09:19:19;;;;;;;;;;;;;;;25.24;60.53;99072.97;4463970;32;19965;-90
2022/08/21 09:21:47;;;;;;;;;;;;;;;25.25;60.53;99077.28;4443660;32;19985;-90
2022/08/21 09:24:31;;;;;;;;;;;;;;;25.41;60.54;99073.88;4455679;32;20031;-90
2022/08/21 09:27:04;;;;;;;;;;;;;;;25.37;60.53;99072.53;4455892;32;19977;-90
2022/08/21 09:29:30;;;;;;;;;;;;;;;25.50;60.54;99072.91;4455723;32;20025;-90
2022/08/21 09:31:55;;;;;;;;;;;;;;;25.31;60.54;99078.47;4441654;32;19989;-90
2022/08/21 09:34:24;;;;;;;;;;;;;;;25.13;60.52;99070.59;4428550;32;20008;-90
2022/08/21 09:36:50;;;;;;;;;;;;;;;25.07;60.52;99073.84;4441422;32;20055;-89
2022/08/21 09:39:22;;;;;;;;;;;;;;;25.27;60.54;99062.00;4441380;32;20235;-90
2022/08/21 09:41:54;;;;;;;;;;;;;;;25.03;60.52;99065.34;4441437;32;19989;-90
2022/08/21 09:44:23;;;;;;;;;;;;;;;25.11;60.53;99064.59;4441324;32;19993;-91
2022/08/21 09:46:52;;;;;;;;;;;;;;;25.33;60.54;99058.72;4441599;32;19969;-91
2022/08/21 09:49:26;;;;;;;;;;;;;;;25.54;60.54;99057.44;4441296;32;20041;-90
2022/08/21 09:51:51;;;;;;;;;;;;;;;25.51;60.54;99063.09;4441504;32;19987;-91
2022/08/21 09:54:17;;;;;;;;;;;;;;;25.54;60.54;99054.75;4441397;32;19985;-90
2022/08/21 09:59:39;;;;;;;;;;;;;;;25.65;60.55;99060.66;4443371;32;19995;-91
2022/08/21 10:02:19;;;;;;;;;;;;;;;25.49;60.55;99059.75;4441296;32;19981;-92
2022/08/21 10:04:49;;;;;;;;;;;;;;;25.58;60.55;99064.97;4441150;32;19984;-91
2022/08/21 10:07:14;;;;;;;;;;;;;;;25.69;60.55;99062.03;4441338;32;19969;-90
2022/08/21 10:09:39;;;;;;;;;;;;;;;25.83;60.56;99070.41;4441087;32;20034;-90
2022/08/21 10:12:23;;;;;;;;;;;;;;;25.83;60.56;99067.75;4440961;32;20334;-92
2022/08/21 10:15:01;;;;;;;;;;;;;;;25.96;60.57;99065.41;4428565;32;20004;-91
2022/08/21 10:17:27;;;;;;;;;;;;;;;26.09;60.57;99067.62;4441095;32;20018;-91
2022/08/21 10:20:04;;;;;;;;;;;;;;;26.28;60.58;99070.81;4441083;32;20273;-91
2022/08/21 10:22:29;;;;;;;;;;;;;;;26.61;60.60;99061.00;4442138;32;20396;-91
2022/08/21 10:24:57;;;;;;;;;;;;;;;26.79;60.61;99062.66;4441503;32;19989;-90
2022/08/21 10:27:29;;;;;;;;;;;;;;;26.81;60.62;99058.81;4441264;32;20282;-91
2022/08/21 10:30:13;;;;;;;;;;;;;;;26.97;60.62;99052.56;4455019;32;20030;-91
2022/08/21 10:32:58;;;;;;;;;;;;;;;27.04;60.63;99056.28;4452605;32;20381;-92
2022/08/21 10:35:30;;;;;;;;;;;;;;;27.26;60.63;99052.03;4455183;32;20011;-92
2022/08/21 10:38:11;;;;;;;;;;;;;;;27.27;60.64;99064.41;4441367;32;19981;-92
2022/08/21 10:40:40;;;;;;;;;;;;;;;27.24;60.63;99058.56;4455298;32;19978;-93
2022/08/21 10:43:24;;;;;;;;;;;;;;;27.27;60.63;99050.22;4441174;32;19977;-92
2022/08/21 10:45:55;;;;;;;;;;;;;;;27.14;60.64;99056.09;4455282;32;20036;-92
2022/08/21 10:48:23;;;;;;;;;;;;;;;27.11;60.62;99049.25;4458040;32;19969;-92
2022/08/21 10:50:54;;;;;;;;;;;;;;;27.36;60.63;99043.81;4461366;32;19964;-91
2022/08/21 10:53:25;;;;;;;;;;;;;;;27.36;60.63;99054.50;4448975;32;19999;-93
2022/08/21 10:55:50;;;;;;;;;;;;;;;27.31;60.64;99046.19;4441877;32;20004;-93
2022/08/21 10:58:24;;;;;;;;;;;;;;;27.53;60.66;99051.59;4441691;32;20033;-93
2022/08/21 11:00:51;;;;;;;;;;;;;;;27.82;60.66;99042.94;4441812;32;20382;-92
2022/08/21 11:03:21;;;;;;;;;;;;;;;27.77;60.66;99048.00;4441608;32;19985;-95
2022/08/21 11:05:49;;;;;;;;;;;;;;;27.86;60.67;99038.06;4428201;32;20032;-93
2022/08/21 11:08:17;;;;;;;;;;;;;;;27.75;60.67;99042.00;4441486;32;19977;-93
2022/08/21 11:10:45;;;;;;;;;;;;;;;27.41;60.65;99050.31;4445112;32;20361;-93
2022/08/21 11:13:16;;;;;;;;;;;;;;;27.09;60.63;99043.25;4452374;32;19961;-92
2022/08/21 11:15:54;;;;;;;;;;;;;;;27.35;60.64;99042.16;4445428;32;20027;-93
2022/08/21 11:18:22;;;;;;;;;;;;;;;27.49;60.65;99042.25;4442297;32;19988;-93
2022/08/21 11:20:54;;;;;;;;;;;;;;;27.73;60.66;99032.47;4442099;32;19976;-93
2022/08/21 11:23:28;;;;;;;;;;;;;;;27.88;60.66;99037.88;4442642;32;20000;-93
2022/08/21 11:25:55;;;;;;;;;;;;;;;27.68;60.67;99034.81;4443249;32;20053;-93
2022/08/21 11:28:22;;;;;;;;;;;;;;;27.60;60.66;99035.69;4442969;32;20290;-93
2022/08/21 11:30:56;;;;;;;;;;;;;;;27.75;60.67;99030.47;4443148;32;20004;-93
2022/08/21 11:33:25;;;;;;;;;;;;;;;27.28;60.65;99031.31;4443946;32;20342;-94
2022/08/21 11:35:50;;;;;;;;;;;;;;;27.04;60.63;99032.25;4443805;32;20001;-92
2022/08/21 11:38:35;;;;;;;;;;;;;;;27.11;60.63;99043.06;4442880;32;20025;-94
2022/08/21 11:41:19;;;;;;;;;;;;;;;27.37;60.65;99038.28;4430038;32;19995;-92
2022/08/21 11:43:53;;;;;;;;;;;;;;;27.31;60.64;99035.50;4443280;32;20008;-92
2022/08/21 11:46:25;;;;;;;;;;;;;;;27.31;60.64;99030.97;4445436;32;20050;-94
2022/08/21 11:48:58;;;;;;;;;;;;;;;27.81;60.66;99030.59;4444028;32;20398;-93
2022/08/21 11:51:47;;;;;;;;;;;;;;;28.00;60.68;99028.47;4428078;32;19984;-93
2022/08/21 11:54:12;;;;;;;;;;;;;;;27.75;60.67;99014.41;4429641;32;19997;-93
2022/08/21 11:56:38;;;;;;;;;;;;;;;27.50;60.65;99011.84;4427547;32;19992;-93
2022/08/21 11:59:23;;;;;;;;;;;;;;;27.60;60.67;99021.47;4414624;32;19973;-93
2022/08/21 12:01:50;;;;;;;;;;;;;;;27.68;60.67;99019.66;4427001;32;19981;-93
2022/08/21 12:04:22;;;;;;;;;;;;;;;27.44;60.66;99028.56;4427591;32;19981;-93
2022/08/21 12:06:49;;;;;;;;;;;;;;;27.46;60.65;99021.22;4427259;32;20000;-94
2022/08/21 12:09:23;;;;;;;;;;;;;;;27.14;60.64;99021.34;4427370;32;20710;-93
2022/08/21 12:11:49;;;;;;;;;;;;;;;27.17;60.64;99016.50;4427273;32;19993;-93
2022/08/21 12:14:15;;;;;;;;;;;;;;;27.08;60.64;99030.88;4427315;32;19993;-92
2022/08/21 12:16:48;;;;;;;;;;;;;;;26.96;60.62;99026.03;4427437;32;19996;-93
2022/08/21 12:19:19;;;;;;;;;;;;;;;26.80;60.61;99025.09;4427384;32;20706;-93
2022/08/21 12:21:51;;;;;;;;;;;;;;;26.98;60.63;99018.72;4427395;32;19974;-93
2022/08/21 12:24:18;;;;;;;;;;;;;;;27.13;60.64;99019.69;4427327;32;20059;-93
2022/08/21 12:26:52;;;;;;;;;;;;;;;27.25;60.64;99020.16;4427430;32;20042;-92
2022/08/21 12:29:23;;;;;;;;;;;;;;;27.16;60.64;99025.50;4427364;32;19988;-94
2022/08/21 12:31:49;;;;;;;;;;;;;;;27.10;60.63;99017.34;4427258;32;19996;-94
2022/08/21 12:34:14;;;;;;;;;;;;;;;26.85;60.62;99014.72;4414015;32;19989;-93
2022/08/21 12:36:42;;;;;;;;;;;;;;;26.75;60.62;99016.78;4426941;32;20035;-92
2022/08/21 12:39:11;;;;;;;;;;;;;;;26.76;60.62;99020.28;4427281;32;20021;-92
2022/08/21 12:41:48;;;;;;;;;;;;;;;26.32;60.59;99025.97;4427357;32;19981;-94
2022/08/21 12:44:14;;;;;;;;;;;;;;;26.24;60.59;99013.44;4426930;32;19997;-92
2022/08/21 12:46:43;;;;;;;;;;;;;;;26.09;60.58;99019.59;4427315;32;20317;-93
2022/08/21 12:49:28;;;;;;;;;;;;;;;25.88;60.58;99018.25;4441751;32;20025;-93
2022/08/21 12:51:55;;;;;;;;;;;;;;;26.00;60.58;99019.59;4444548;32;19977;-91